Time;durP1;ratioP1;P1;durP2;ratioP2;P2;SDS_P1;SDS_P2;PMS_P1;PMS_P2;Temp;Humidity;BMP_temperature;BMP_pressure;BME280_temperature;BME280_humidity;BME280_pressure;Samples;Min_cycle;Max_cycle;Signal;HPM_P1;HPM_P2
2023/07/16 00:01:04;;;;;;;17.05;3.88;;;;;;;;;;4955085;28;20176;-62
2023/07/16 00:03:30;;;;;;;19.38;3.65;;;;;;;;;;4954972;28;20172;-62
2023/07/16 00:05:56;;;;;;;15.15;3.30;;;;;;;;;;4954894;28;20173;-61
2023/07/16 00:08:22;;;;;;;19.75;4.03;;;15.10;99.90;;;;;;4954881;28;20173;-61
2023/07/16 00:10:48;;;;;;;20.15;3.30;;;;;;;;;;4954775;28;20196;-62
2023/07/16 00:13:14;;;;;;;22.50;3.60;;;;;;;;;;4954949;28;20168;-62
2023/07/16 00:15:40;;;;;;;20.55;4.57;;;14.90;99.90;;;;;;4954819;28;20187;-64
2023/07/16 00:18:05;;;;;;;19.05;4.18;;;15.10;99.90;;;;;;4954597;28;20204;-63
2023/07/16 00:20:32;;;;;;;18.77;3.83;;;;;;;;;;4954847;28;20259;-63
2023/07/16 00:22:58;;;;;;;20.67;3.95;;;;;;;;;;4954744;28;20185;-63
2023/07/16 00:25:23;;;;;;;21.80;3.55;;;15.20;99.90;;;;;;4954657;28;20173;-63
2023/07/16 00:27:49;;;;;;;13.52;3.40;;;;;;;;;;4954581;28;20177;-63
2023/07/16 00:30:15;;;;;;;18.75;4.10;;;15.50;99.90;;;;;;4954468;28;20193;-63
2023/07/16 00:32:41;;;;;;;26.42;4.15;;;15.10;99.90;;;;;;4954449;28;20695;-62
2023/07/16 00:35:07;;;;;;;27.27;4.55;;;15.10;99.90;;;;;;4954416;28;20168;-62
2023/07/16 00:37:34;;;;;;;27.38;4.20;;;15.30;99.90;;;;;;4954490;28;20173;-63
2023/07/16 00:40:00;;;;;;;26.83;4.28;;;15.00;99.90;;;;;;4954295;28;20220;-63
2023/07/16 00:42:25;;;;;;;23.45;3.95;;;15.10;99.90;;;;;;4954295;29;20259;-63
2023/07/16 00:44:51;;;;;;;34.30;5.22;;;15.10;99.90;;;;;;4954106;28;20644;-63
2023/07/16 00:47:17;;;;;;;27.80;4.28;;;15.10;99.90;;;;;;4954089;28;20624;-63
2023/07/16 00:49:42;;;;;;;26.15;4.85;;;15.10;99.90;;;;;;4954259;28;20184;-63
2023/07/16 00:52:16;;;;;;;21.33;3.90;;;15.10;99.90;;;;;;4954526;28;20176;-63
2023/07/16 00:54:42;;;;;;;24.58;4.25;;;15.00;99.90;;;;;;4954133;28;20663;-63
2023/07/16 00:57:08;;;;;;;26.35;4.78;;;15.00;99.90;;;;;;4952700;28;20543;-64
2023/07/16 00:59:34;;;;;;;18.08;3.65;;;15.10;99.90;;;;;;4953864;28;20218;-64
2023/07/16 01:01:59;;;;;;;25.25;4.15;;;15.10;99.90;;;;;;4953875;28;20261;-63
2023/07/16 01:04:25;;;;;;;27.55;3.85;;;15.10;99.90;;;;;;4953918;28;20200;-63
2023/07/16 01:06:55;;;;;;;24.25;3.63;;;15.10;99.90;;;;;;4953885;28;20177;-62
2023/07/16 01:09:21;;;;;;;31.13;4.30;;;15.10;99.90;;;;;;4953619;28;20183;-63
2023/07/16 01:11:48;;;;;;;19.70;3.47;;;15.00;99.90;;;;;;4953791;28;20173;-61
2023/07/16 01:14:16;;;;;;;24.20;4.05;;;15.10;99.90;;;;;;4953685;28;20252;-62
2023/07/16 01:16:42;;;;;;;18.00;3.90;;;15.10;99.90;;;;;;4953908;28;20169;-63
2023/07/16 01:19:08;;;;;;;22.17;4.07;;;15.10;99.90;;;;;;4954008;28;20246;-63
2023/07/16 01:21:55;;;;;;;24.13;3.88;;;15.10;99.90;;;;;;4952461;28;20669;-63
2023/07/16 01:24:23;;;;;;;23.77;3.80;;;15.10;99.90;;;;;;4953609;28;20177;-63
2023/07/16 01:27:21;;;;;;;22.92;4.60;;;14.90;99.90;;;;;;4954089;28;20211;-63
2023/07/16 01:29:51;;;;;;;24.20;3.92;;;15.60;99.90;;;;;;4952202;29;20246;-63
2023/07/16 01:32:18;;;;;;;23.83;4.35;;;15.00;99.90;;;;;;4953607;28;20256;-63
2023/07/16 01:34:45;;;;;;;30.65;4.68;;;15.10;99.90;;;;;;4953441;28;20267;-65
2023/07/16 01:37:10;;;;;;;20.80;4.15;;;15.20;99.90;;;;;;4953359;28;20177;-63
2023/07/16 01:39:36;;;;;;;26.45;3.67;;;15.20;99.90;;;;;;4953224;28;20274;-63
2023/07/16 01:42:03;;;;;;;26.10;4.00;;;15.20;99.90;;;;;;4953437;28;20172;-63
2023/07/16 01:44:28;;;;;;;31.17;4.05;;;15.20;99.90;;;;;;4953324;28;20173;-63
2023/07/16 01:47:06;;;;;;;27.83;3.80;;;15.10;99.90;;;;;;4953036;28;20233;-61
2023/07/16 01:49:32;;;;;;;30.98;4.65;;;15.30;99.90;;;;;;4953019;28;20191;-63
2023/07/16 01:52:01;;;;;;;26.08;3.35;;;15.30;99.90;;;;;;4951651;29;20238;-62
2023/07/16 01:54:26;;;;;;;22.02;4.13;;;15.20;99.90;;;;;;4953285;28;20180;-63
2023/07/16 01:56:52;;;;;;;23.75;3.65;;;15.30;99.90;;;;;;4953101;28;20591;-63
2023/07/16 01:59:17;;;;;;;22.00;3.95;;;15.30;99.90;;;;;;4953306;28;20223;-63
2023/07/16 02:01:43;;;;;;;24.33;4.07;;;15.30;99.90;;;;;;4953068;28;20263;-63
2023/07/16 02:04:09;;;;;;;30.30;4.65;;;15.30;99.90;;;;;;4952891;28;20180;-63
2023/07/16 02:06:34;;;;;;;23.10;4.82;;;15.30;99.90;;;;;;4952982;28;20343;-62
2023/07/16 02:09:00;;;;;;;26.25;4.32;;;15.30;99.90;;;;;;4953153;28;20644;-63
2023/07/16 02:11:25;;;;;;;30.02;4.43;;;15.40;99.90;;;;;;4955531;28;20226;-63
2023/07/16 02:13:51;;;;;;;23.90;3.42;;;15.40;99.90;;;;;;4961866;28;20199;-62
2023/07/16 02:16:16;;;;;;;25.38;3.92;;;15.30;99.90;;;;;;4972104;28;20176;-62
2023/07/16 02:18:42;;;;;;;27.60;4.00;;;15.30;99.90;;;;;;4956564;28;20200;-62
2023/07/16 02:21:08;;;;;;;19.30;3.83;;;15.30;99.90;;;;;;4954718;28;20699;-65
2023/07/16 02:23:33;;;;;;;23.92;3.38;;;15.20;99.90;;;;;;4956702;28;20177;-63
2023/07/16 02:25:59;;;;;;;24.25;4.18;;;15.30;99.90;;;;;;4956760;28;20179;-63
2023/07/16 02:28:24;;;;;;;22.20;3.72;;;15.20;99.90;;;;;;4956789;28;20188;-63
2023/07/16 02:30:50;;;;;;;19.17;2.92;;;15.30;99.90;;;;;;4971570;28;20653;-62
2023/07/16 02:33:16;;;;;;;22.02;3.58;;;15.30;99.90;;;;;;4976028;28;20180;-63
2023/07/16 02:35:49;;;;;;;23.15;4.10;;;15.00;99.90;;;;;;4975832;28;20262;-63
2023/07/16 02:38:15;;;;;;;27.77;4.22;;;15.30;99.90;;;;;;4975832;28;20223;-62
2023/07/16 02:40:45;;;;;;;28.48;3.85;;;15.10;99.90;;;;;;4975904;28;20176;-63
2023/07/16 02:43:11;;;;;;;22.35;3.67;;;15.30;99.90;;;;;;4975700;28;20184;-63
2023/07/16 02:45:37;;;;;;;22.60;3.83;;;15.30;99.90;;;;;;4975549;28;20270;-63
2023/07/16 02:48:04;;;;;;;21.33;3.00;;;15.30;99.90;;;;;;4975633;28;20658;-64
2023/07/16 02:50:29;;;;;;;26.95;4.55;;;15.40;99.90;;;;;;4975527;28;20183;-63
2023/07/16 02:52:55;;;;;;;24.52;4.05;;;15.30;99.90;;;;;;4975478;28;20176;-63
2023/07/16 02:55:20;;;;;;;20.60;3.47;;;15.30;99.90;;;;;;4975412;28;20163;-63
2023/07/16 02:57:46;;;;;;;27.02;3.65;;;15.30;99.90;;;;;;4975446;28;20172;-63
2023/07/16 03:00:12;;;;;;;23.50;3.40;;;15.40;99.90;;;;;;4975367;28;20219;-63
2023/07/16 03:02:37;;;;;;;21.50;3.30;;;15.30;99.90;;;;;;4975805;28;20179;-63
2023/07/16 03:05:03;;;;;;;21.73;3.83;;;15.30;99.90;;;;;;4975332;28;20209;-63
2023/07/16 03:07:29;;;;;;;13.25;2.88;;;15.40;99.90;;;;;;4959072;28;20694;-63
2023/07/16 03:09:55;;;;;;;24.45;3.63;;;15.40;99.90;;;;;;4955938;28;20176;-63
2023/07/16 03:12:20;;;;;;;23.77;3.47;;;15.30;99.90;;;;;;4955919;28;20173;-63
2023/07/16 03:14:47;;;;;;;22.30;3.65;;;15.30;99.90;;;;;;4955837;28;20216;-63
2023/07/16 03:17:12;;;;;;;20.75;3.05;;;15.10;99.90;;;;;;4955755;28;20188;-63
2023/07/16 03:19:38;;;;;;;21.17;3.97;;;15.20;99.90;;;;;;4955608;28;20205;-63
2023/07/16 03:22:04;;;;;;;26.08;4.43;;;15.20;99.90;;;;;;4955930;28;20640;-62
2023/07/16 03:24:29;;;;;;;21.50;3.85;;;15.00;99.90;;;;;;4955780;28;20177;-62
2023/07/16 03:26:55;;;;;;;17.35;2.78;;;14.80;99.90;;;;;;4955573;28;20187;-62
2023/07/16 03:29:21;;;;;;;21.13;2.97;;;15.00;99.90;;;;;;4955650;28;20483;-63
2023/07/16 03:31:46;;;;;;;21.10;3.35;;;14.70;99.90;;;;;;4955367;28;20224;-63
2023/07/16 03:34:12;;;;;;;19.08;3.47;;;;;;;;;;4955491;28;20536;-63
2023/07/16 03:36:38;;;;;;;20.17;3.15;;;14.70;99.90;;;;;;4955503;28;20169;-63
2023/07/16 03:39:03;;;;;;;23.60;3.10;;;14.60;99.90;;;;;;4955283;28;20227;-63
2023/07/16 03:41:29;;;;;;;21.90;3.30;;;;;;;;;;4955852;28;20566;-63
2023/07/16 03:43:55;;;;;;;27.77;3.50;;;14.40;99.90;;;;;;4955308;28;20192;-63
2023/07/16 03:46:20;;;;;;;26.30;3.27;;;14.30;99.90;;;;;;4955019;28;20220;-63
2023/07/16 03:48:46;;;;;;;16.70;2.80;;;14.30;99.90;;;;;;4955203;28;20534;-63
2023/07/16 03:51:12;;;;;;;26.20;3.75;;;;;;;;;;4955185;28;20169;-63
2023/07/16 03:53:38;;;;;;;19.75;3.20;;;14.20;99.90;;;;;;4955262;28;20181;-63
2023/07/16 03:56:04;;;;;;;23.27;2.90;;;14.10;99.90;;;;;;4954984;28;20172;-63
2023/07/16 03:58:30;;;;;;;17.92;3.25;;;;;;;;;;4954905;28;20212;-63
2023/07/16 04:00:56;;;;;;;28.23;3.47;;;;;;;;;;4955108;28;20304;-64
2023/07/16 04:03:21;;;;;;;22.70;3.58;;;14.10;99.90;;;;;;4955282;28;20195;-63
2023/07/16 04:05:47;;;;;;;23.20;3.23;;;14.20;99.90;;;;;;4957427;28;20173;-63
2023/07/16 04:08:13;;;;;;;18.33;3.20;;;14.10;99.90;;;;;;4974237;28;20587;-63
2023/07/16 04:10:39;;;;;;;19.57;3.30;;;13.90;99.90;;;;;;4974255;28;20573;-63
2023/07/16 04:13:04;;;;;;;19.17;3.15;;;14.00;99.90;;;;;;4974188;28;20651;-62
2023/07/16 04:15:30;;;;;;;18.52;2.70;;;14.00;99.90;;;;;;4973906;28;20171;-62
2023/07/16 04:17:55;;;;;;;23.35;3.03;;;14.00;99.90;;;;;;4973844;28;20199;-63
2023/07/16 04:20:21;;;;;;;21.80;3.50;;;14.00;99.90;;;;;;4973899;28;20168;-63
2023/07/16 04:22:47;;;;;;;17.90;2.97;;;14.00;99.90;;;;;;4973953;28;20247;-63
2023/07/16 04:25:13;;;;;;;24.67;3.40;;;14.00;99.90;;;;;;4973936;28;20183;-63
2023/07/16 04:27:41;;;;;;;24.27;3.47;;;14.00;99.90;;;;;;4974010;28;20164;-63
2023/07/16 04:30:07;;;;;;;16.75;2.67;;;14.00;99.90;;;;;;4972546;28;20176;-63
2023/07/16 04:32:33;;;;;;;25.27;3.33;;;14.00;99.90;;;;;;4973773;28;20223;-63
2023/07/16 04:34:58;;;;;;;22.97;3.40;;;13.80;99.90;;;;;;4973664;28;20562;-63
2023/07/16 04:37:24;;;;;;;20.80;3.43;;;13.90;99.90;;;;;;4972415;28;20176;-62
2023/07/16 04:39:50;;;;;;;20.03;2.53;;;13.60;99.90;;;;;;4973545;28;20704;-64
2023/07/16 04:42:16;;;;;;;19.00;2.80;;;13.50;99.90;;;;;;4973505;28;20175;-64
2023/07/16 04:44:42;;;;;;;15.03;2.57;;;13.50;99.90;;;;;;4972882;28;20183;-64
2023/07/16 04:47:08;;;;;;;17.53;3.40;;;13.60;99.90;;;;;;4973289;28;20224;-64
2023/07/16 04:49:36;;;;;;;16.40;3.43;;;13.70;99.90;;;;;;4973408;28;20215;-65
2023/07/16 04:52:01;;;;;;;15.77;2.90;;;13.50;99.90;;;;;;4973550;28;20180;-66
2023/07/16 04:54:27;;;;;;;19.70;3.13;;;13.50;99.90;;;;;;4973308;28;20650;-65
2023/07/16 04:56:53;;;;;;;16.50;2.77;;;;;;;;;;4973260;28;20179;-65
2023/07/16 04:59:19;;;;;;;17.90;3.03;;;13.50;99.90;;;;;;4972972;28;20242;-65
2023/07/16 05:01:44;;;;;;;20.37;3.03;;;13.60;99.90;;;;;;4973121;28;20631;-65
2023/07/16 05:04:10;;;;;;;16.13;2.57;;;13.60;99.90;;;;;;4971795;28;20286;-62
2023/07/16 05:06:36;;;;;;;15.30;2.30;;;;;;;;;;4963962;28;20176;-62
2023/07/16 05:09:02;;;;;;;21.53;3.17;;;13.70;99.90;;;;;;4953697;28;20242;-64
2023/07/16 05:11:27;;;;;;;18.27;2.67;;;13.70;99.90;;;;;;4953611;28;20173;-64
2023/07/16 05:13:53;;;;;;;21.37;3.07;;;13.70;99.90;;;;;;4953462;28;20234;-64
2023/07/16 05:16:18;;;;;;;18.13;2.60;;;13.70;99.90;;;;;;4953551;28;20180;-64
2023/07/16 05:18:44;;;;;;;20.37;3.57;;;13.60;99.90;;;;;;4953429;28;20689;-64
2023/07/16 05:21:10;;;;;;;18.37;2.73;;;13.70;99.90;;;;;;4953558;28;20180;-64
2023/07/16 05:23:35;;;;;;;16.23;2.80;;;13.70;99.90;;;;;;4953414;28;20203;-64
2023/07/16 05:26:01;;;;;;;14.57;2.80;;;13.70;99.90;;;;;;4953596;28;20611;-64
2023/07/16 05:28:26;;;;;;;19.30;3.00;;;13.70;99.90;;;;;;4953371;28;20567;-64
2023/07/16 05:31:02;;;;;;;13.40;1.97;;;13.70;99.90;;;;;;4953370;28;20169;-64
2023/07/16 05:33:28;;;;;;;15.20;2.97;;;13.70;99.90;;;;;;4953383;28;20203;-64
2023/07/16 05:35:55;;;;;;;11.47;2.77;;;;;;;;;;4953280;28;20215;-64
2023/07/16 05:38:20;;;;;;;17.07;2.57;;;13.80;99.90;;;;;;4953343;28;20208;-64
2023/07/16 05:40:46;;;;;;;17.43;2.40;;;13.90;99.90;;;;;;4953304;28;20231;-64
2023/07/16 05:43:13;;;;;;;15.07;2.13;;;13.80;99.90;;;;;;4953181;28;20589;-64
2023/07/16 05:45:40;;;;;;;18.80;3.57;;;13.80;99.90;;;;;;4953259;28;20259;-63
2023/07/16 05:48:05;;;;;;;16.57;2.63;;;13.80;99.90;;;;;;4953153;28;20180;-64
2023/07/16 05:50:31;;;;;;;14.67;2.80;;;;;;;;;;4953074;28;20185;-64
2023/07/16 05:52:57;;;;;;;18.90;2.77;;;13.50;99.90;;;;;;4953113;28;20173;-65
2023/07/16 05:55:22;;;;;;;11.47;2.63;;;14.00;99.90;;;;;;4952204;28;20183;-64
2023/07/16 05:57:48;;;;;;;16.87;3.10;;;13.80;99.90;;;;;;4953006;28;20181;-64
2023/07/16 06:00:14;;;;;;;12.90;2.50;;;13.80;99.90;;;;;;4952956;28;20656;-63
2023/07/16 06:02:40;;;;;;;15.77;2.70;;;13.70;99.90;;;;;;4952954;28;20175;-64
2023/07/16 06:05:06;;;;;;;17.93;3.50;;;13.80;99.90;;;;;;4952936;28;20212;-64
2023/07/16 06:07:31;;;;;;;19.48;2.88;;;13.80;99.90;;;;;;4968920;28;20650;-64
2023/07/16 06:09:58;;;;;;;18.38;2.75;;;14.00;99.90;;;;;;4972203;28;20341;-64
2023/07/16 06:12:23;;;;;;;16.37;2.70;;;14.00;99.90;;;;;;4972102;28;20172;-64
2023/07/16 06:14:49;;;;;;;23.30;3.60;;;14.00;99.90;;;;;;4972295;28;20230;-64
2023/07/16 06:17:14;;;;;;;19.13;3.78;;;14.00;99.90;;;;;;4972193;28;20623;-65
2023/07/16 06:19:40;;;;;;;15.65;3.17;;;;;;;;;;4971987;28;20683;-64
2023/07/16 06:22:08;;;;;;;17.53;3.10;;;;;;;;;;4972168;28;20263;-64
2023/07/16 06:24:36;;;;;;;11.10;2.87;;;14.00;99.90;;;;;;4972131;28;20183;-67
2023/07/16 06:27:02;;;;;;;19.23;3.03;;;14.00;99.90;;;;;;4971934;28;20184;-65
2023/07/16 06:29:27;;;;;;;15.35;2.88;;;14.10;99.90;;;;;;4971977;28;20168;-65
2023/07/16 06:31:59;;;;;;;17.57;3.33;;;14.00;99.90;;;;;;4971939;28;20168;-65
2023/07/16 06:34:25;;;;;;;17.83;2.77;;;14.20;99.90;;;;;;4970631;28;20584;-64
2023/07/16 06:36:51;;;;;;;20.43;3.43;;;14.20;99.90;;;;;;4971916;28;20176;-65
2023/07/16 06:39:17;;;;;;;20.83;2.57;;;;;;;;;;4971811;28;20212;-65
2023/07/16 06:41:43;;;;;;;21.80;3.17;;;14.40;99.90;;;;;;4971890;28;20245;-65
2023/07/16 06:44:08;;;;;;;13.50;2.70;;;14.20;99.90;;;;;;4971861;28;20327;-65
2023/07/16 06:46:34;;;;;;;21.40;3.10;;;14.40;99.90;;;;;;4971867;28;20708;-65
2023/07/16 06:48:59;;;;;;;20.92;3.60;;;14.30;99.90;;;;;;4972145;28;20180;-65
2023/07/16 06:51:25;;;;;;;9.73;2.33;;;14.30;99.90;;;;;;4971863;28;20635;-65
2023/07/16 06:53:51;;;;;;;20.07;2.67;;;14.20;99.90;;;;;;4971747;28;20184;-64
2023/07/16 06:56:16;;;;;;;8.15;1.45;;;14.20;99.90;;;;;;4971661;28;20267;-64
2023/07/16 06:58:42;;;;;;;5.80;1.10;;;13.80;99.90;;;;;;4971584;28;20212;-65
2023/07/16 07:01:07;;;;;;;6.07;1.00;;;13.80;99.90;;;;;;4971678;28;20246;-66
2023/07/16 07:03:33;;;;;;;7.53;1.33;;;13.90;99.90;;;;;;4971675;28;20655;-65
2023/07/16 07:06:03;;;;;;;5.20;1.03;;;13.90;99.90;;;;;;4967580;28;20251;-65
2023/07/16 07:08:29;;;;;;;5.60;1.17;;;14.00;99.90;;;;;;4955901;28;20176;-66
2023/07/16 07:10:54;;;;;;;11.23;2.07;;;14.00;99.90;;;;;;4955847;28;20185;-66
2023/07/16 07:13:20;;;;;;;9.43;1.70;;;13.90;99.90;;;;;;4954594;29;20176;-67
2023/07/16 07:15:46;;;;;;;16.33;2.63;;;14.10;99.90;;;;;;4955757;28;20680;-66
2023/07/16 07:18:11;;;;;;;15.00;2.47;;;14.20;99.90;;;;;;4970585;28;20177;-66
2023/07/16 07:20:37;;;;;;;13.70;2.30;;;14.40;99.90;;;;;;4955661;28;20640;-66
2023/07/16 07:23:04;;;;;;;15.13;2.83;;;14.30;99.90;;;;;;4955625;28;20172;-66
2023/07/16 07:25:30;;;;;;;11.63;2.40;;;14.30;99.90;;;;;;4955622;28;20172;-66
2023/07/16 07:27:56;;;;;;;15.73;2.80;;;14.40;99.90;;;;;;4955507;28;20254;-66
2023/07/16 07:30:21;;;;;;;18.33;2.80;;;14.30;99.90;;;;;;4955547;28;20389;-67
2023/07/16 07:32:47;;;;;;;14.33;2.70;;;14.40;99.90;;;;;;4955486;28;20176;-66
2023/07/16 07:35:13;;;;;;;11.52;2.40;;;14.40;99.90;;;;;;4955405;28;20180;-65
2023/07/16 07:37:38;;;;;;;22.97;2.90;;;14.50;99.90;;;;;;4955358;28;20260;-65
2023/07/16 07:40:04;;;;;;;13.53;2.60;;;14.50;99.90;;;;;;4955283;28;20598;-65
2023/07/16 07:42:30;;;;;;;16.50;3.00;;;14.60;99.90;;;;;;4955269;28;20176;-65
2023/07/16 07:44:56;;;;;;;18.05;3.08;;;14.50;99.90;;;;;;4955092;28;20723;-66
2023/07/16 07:47:21;;;;;;;11.82;2.75;;;14.60;99.90;;;;;;4955413;28;20176;-64
2023/07/16 07:49:47;;;;;;;21.13;2.80;;;14.50;99.90;;;;;;4955111;28;20644;-66
2023/07/16 07:52:13;;;;;;;12.55;2.80;;;14.60;99.90;;;;;;4955028;28;20207;-66
2023/07/16 07:54:38;;;;;;;18.15;3.10;;;14.60;99.90;;;;;;4954995;28;20632;-66
2023/07/16 07:57:05;;;;;;;14.68;2.75;;;12.10;99.90;;;;;;4954950;28;20173;-65
2023/07/16 07:59:31;;;;;;;17.00;3.78;;;14.60;99.90;;;;;;4954840;28;20248;-65
2023/07/16 08:02:01;;;;;;;10.75;2.60;;;14.70;99.90;;;;;;4954840;28;20199;-65
2023/07/16 08:04:27;;;;;;;14.95;2.60;;;14.80;99.90;;;;;;4954893;28;20168;-66
2023/07/16 08:06:54;;;;;;;13.25;2.33;;;14.80;99.90;;;;;;4965777;28;20183;-66
2023/07/16 08:09:19;;;;;;;14.35;2.88;;;14.60;99.90;;;;;;4974152;28;20183;-65
2023/07/16 08:11:45;;;;;;;7.50;1.65;;;14.70;99.90;;;;;;4974415;28;20176;-65
2023/07/16 08:14:10;;;;;;;10.98;2.25;;;14.60;99.90;;;;;;4974067;28;20184;-64
2023/07/16 08:16:36;;;;;;;10.77;2.17;;;;;;;;;;4972709;28;20608;-65
2023/07/16 08:19:02;;;;;;;11.17;2.30;;;14.80;99.90;;;;;;4973021;28;20211;-65
2023/07/16 08:21:28;;;;;;;6.88;1.67;;;14.80;99.90;;;;;;4973834;28;20176;-65
2023/07/16 08:23:53;;;;;;;8.77;1.73;;;14.70;99.90;;;;;;4974034;28;20215;-65
2023/07/16 08:26:19;;;;;;;9.77;1.77;;;14.70;99.90;;;;;;4973774;28;20176;-66
2023/07/16 08:28:45;;;;;;;10.55;1.80;;;14.70;99.90;;;;;;4973986;28;20180;-65
2023/07/16 08:31:12;;;;;;;8.30;1.37;;;14.50;99.90;;;;;;4973677;28;20169;-66
2023/07/16 08:33:38;;;;;;;7.65;1.48;;;15.00;99.90;;;;;;4973654;28;20164;-65
2023/07/16 08:36:04;;;;;;;7.40;1.50;;;14.90;99.90;;;;;;4973658;28;20182;-65
2023/07/16 08:38:30;;;;;;;15.90;2.03;;;14.70;99.90;;;;;;4973536;28;20228;-65
2023/07/16 08:40:55;;;;;;;15.40;2.00;;;14.70;99.90;;;;;;4973518;28;20242;-65
2023/07/16 08:43:22;;;;;;;11.63;1.77;;;14.70;99.90;;;;;;4973533;28;20227;-65
2023/07/16 08:45:49;;;;;;;8.25;1.75;;;14.40;99.90;;;;;;4973296;28;20703;-65
2023/07/16 08:48:19;;;;;;;7.53;1.65;;;14.20;99.90;;;;;;4973409;28;20705;-65
2023/07/16 08:50:48;;;;;;;9.57;1.47;;;14.20;99.90;;;;;;4973397;28;20175;-65
2023/07/16 08:53:18;;;;;;;9.47;1.47;;;14.30;99.90;;;;;;4973381;28;20163;-65
2023/07/16 08:55:44;;;;;;;8.70;1.90;;;14.60;99.90;;;;;;4973309;28;20180;-65
2023/07/16 08:58:14;;;;;;;9.07;1.98;;;14.70;99.90;;;;;;4973233;28;20172;-65
2023/07/16 09:00:42;;;;;;;10.60;1.40;;;15.20;99.90;;;;;;4973185;28;20179;-64
2023/07/16 09:03:08;;;;;;;13.50;2.00;;;14.80;99.90;;;;;;4973018;28;20179;-65
2023/07/16 09:05:35;;;;;;;8.48;1.55;;;15.10;99.90;;;;;;4972664;28;20260;-65
2023/07/16 09:08:01;;;;;;;8.55;1.55;;;15.70;99.90;;;;;;4953743;28;20173;-64
2023/07/16 09:10:26;;;;;;;8.85;1.70;;;15.20;99.90;;;;;;4953762;28;20173;-64
2023/07/16 09:12:52;;;;;;;6.85;1.30;;;15.30;99.90;;;;;;4952347;28;20319;-65
2023/07/16 09:15:21;;;;;;;11.63;1.60;;;15.50;99.90;;;;;;4953644;28;20686;-65
2023/07/16 09:17:48;;;;;;;9.40;1.88;;;15.80;99.90;;;;;;4953467;28;20658;-64
2023/07/16 09:20:17;;;;;;;5.35;0.82;;;15.70;99.90;;;;;;4953824;28;20223;-64
2023/07/16 09:22:44;;;;;;;9.95;1.70;;;15.70;99.90;;;;;;4953557;28;20256;-65
2023/07/16 09:25:10;;;;;;;6.65;1.38;;;15.80;99.90;;;;;;4953474;28;20264;-65
2023/07/16 09:27:36;;;;;;;11.50;1.75;;;16.00;99.90;;;;;;4953483;28;20176;-64
2023/07/16 09:30:05;;;;;;;8.60;1.70;;;16.30;99.90;;;;;;4953182;28;20679;-65
2023/07/16 09:32:34;;;;;;;7.20;1.30;;;16.60;99.90;;;;;;4953440;28;20172;-65
2023/07/16 09:35:00;;;;;;;9.07;1.40;;;17.00;99.90;;;;;;4953372;28;20172;-63
2023/07/16 09:37:27;;;;;;;7.60;1.58;;;17.20;99.90;;;;;;4953550;29;20192;-63
2023/07/16 09:39:53;;;;;;;5.70;1.33;;;17.20;99.90;;;;;;4953109;28;20247;-64
2023/07/16 09:42:20;;;;;;;6.20;1.23;;;17.40;99.90;;;;;;4953136;28;20233;-63
2023/07/16 09:44:46;;;;;;;4.93;1.85;;;17.20;99.90;;;;;;4953071;28;20189;-64
2023/07/16 09:47:12;;;;;;;5.68;1.10;;;16.60;99.90;;;;;;4953119;28;20210;-63
2023/07/16 09:49:38;;;;;;;4.82;0.90;;;16.20;99.90;;;;;;4953053;28;20184;-63
2023/07/16 09:52:04;;;;;;;5.82;1.00;;;15.70;99.90;;;;;;4953095;28;20168;-63
2023/07/16 09:54:34;;;;;;;4.03;0.85;;;15.70;99.90;;;;;;4952946;28;20177;-63
2023/07/16 09:57:02;;;;;;;6.55;0.95;;;15.60;99.90;;;;;;4952860;28;20207;-63
2023/07/16 09:59:30;;;;;;;8.40;1.20;;;15.40;99.90;;;;;;4952741;28;20283;-63
2023/07/16 10:01:57;;;;;;;4.25;0.88;;;15.40;99.90;;;;;;4952952;28;20172;-63
2023/07/16 10:04:22;;;;;;;3.50;0.73;;;15.40;99.90;;;;;;4952986;28;20160;-62
2023/07/16 10:06:57;;;;;;;9.70;1.10;;;15.60;99.90;;;;;;4962913;28;20713;-63
2023/07/16 10:09:32;;;;;;;5.90;0.90;;;15.60;99.90;;;;;;4971896;28;20247;-63
2023/07/16 10:12:28;;;;;;;6.68;1.05;;;15.80;99.90;;;;;;4971837;28;20176;-63
2023/07/16 10:14:58;;;;;;;5.47;0.93;;;18.30;99.90;;;;;;4970220;28;20210;-63
2023/07/16 10:17:25;;;;;;;6.82;1.05;;;16.60;99.90;;;;;;4972069;28;20174;-63
2023/07/16 10:19:58;;;;;;;8.60;1.00;;;16.70;99.90;;;;;;4972003;28;20712;-63
2023/07/16 10:22:41;;;;;;;3.85;1.08;;;16.80;99.90;;;;;;4971986;28;20176;-63
2023/07/16 10:25:10;;;;;;;5.05;0.80;;;16.80;99.90;;;;;;4972007;28;20180;-62
2023/07/16 10:27:36;;;;;;;8.27;1.40;;;16.70;99.90;;;;;;4970666;28;20584;-63
2023/07/16 10:30:04;;;;;;;6.40;1.00;;;16.70;99.90;;;;;;4970735;28;20238;-63
2023/07/16 10:32:32;;;;;;;8.98;0.93;;;16.80;99.90;;;;;;4971965;28;20222;-63
2023/07/16 10:34:58;;;;;;;7.00;1.30;;;16.80;99.90;;;;;;4971878;28;20168;-62
2023/07/16 10:37:24;;;;;;;7.50;1.33;;;17.00;99.90;;;;;;4971990;28;20199;-63
2023/07/16 10:39:58;;;;;;;6.63;1.30;;;17.50;99.90;;;;;;4971805;28;20208;-63
2023/07/16 10:42:25;;;;;;;13.05;1.65;;;18.00;99.90;;;;;;4974100;28;20172;-64
2023/07/16 10:44:52;;;;;;;9.27;1.48;;;18.10;99.90;;;;;;4975355;28;20180;-62
2023/07/16 10:47:33;;;;;;;11.35;1.88;;;18.20;99.90;;;;;;4975645;28;20180;-64
2023/07/16 10:50:00;;;;;;;6.63;1.40;;;18.40;99.90;;;;;;4975499;28;20160;-63
2023/07/16 10:52:26;;;;;;;14.65;1.88;;;18.50;99.90;;;;;;4975567;28;20225;-63
2023/07/16 10:54:57;;;;;;;13.02;2.10;;;18.60;99.90;;;;;;4975685;28;20203;-63
2023/07/16 10:57:23;;;;;;;12.80;1.45;;;19.00;99.90;;;;;;4975563;28;20183;-64
2023/07/16 10:59:51;;;;;;;9.10;1.80;;;18.90;99.90;;;;;;4975438;28;20258;-64
2023/07/16 11:02:17;;;;;;;14.05;2.45;;;19.10;99.90;;;;;;4975506;28;20168;-64
2023/07/16 11:04:47;;;;;;;11.80;2.30;;;;;;;;;;4975433;28;20670;-64
2023/07/16 11:07:14;;;;;;;10.60;2.33;;;19.20;99.90;;;;;;4975382;28;20319;-62
2023/07/16 11:09:51;;;;;;;12.13;2.05;;;19.20;99.90;;;;;;4975396;28;20640;-64
2023/07/16 11:12:19;;;;;;;11.88;1.70;;;19.20;99.90;;;;;;4974028;28;20670;-63
2023/07/16 11:14:50;;;;;;;11.25;1.90;;;19.80;99.90;;;;;;4975247;28;20176;-64
2023/07/16 11:17:16;;;;;;;13.07;1.77;;;19.80;99.90;;;;;;4974955;28;20191;-63
2023/07/16 11:19:46;;;;;;;14.65;2.30;;;19.70;99.90;;;;;;4974954;28;20218;-63
2023/07/16 11:22:11;;;;;;;14.65;2.30;;;19.70;99.90;;;;;;4975044;28;20198;-63
2023/07/16 11:24:40;;;;;;;9.55;1.85;;;19.30;99.90;;;;;;4974872;28;20659;-63
2023/07/16 11:27:14;;;;;;;15.80;1.92;;;19.50;99.90;;;;;;4974934;28;20255;-62
2023/07/16 11:29:41;;;;;;;11.95;2.25;;;19.50;99.90;;;;;;4974755;28;20598;-62
2023/07/16 11:32:07;;;;;;;11.82;2.22;;;19.50;99.90;;;;;;4974662;28;20171;-63
2023/07/16 11:34:33;;;;;;;13.70;2.08;;;19.80;99.90;;;;;;4973467;28;20366;-64
2023/07/16 11:37:11;;;;;;;11.68;1.98;;;20.00;99.90;;;;;;4974607;28;20174;-63
2023/07/16 11:39:37;;;;;;;10.95;2.05;;;19.80;99.90;;;;;;4974617;28;20222;-62
2023/07/16 11:42:03;;;;;;;9.50;1.52;;;19.20;99.90;;;;;;4974555;28;20223;-64
2023/07/16 11:44:36;;;;;;;13.73;2.58;;;18.70;99.90;;;;;;4974572;28;20176;-64
2023/07/16 11:47:03;;;;;;;15.85;2.13;;;17.80;99.90;;;;;;4974361;28;20751;-63
2023/07/16 11:49:28;;;;;;;10.10;1.80;;;17.20;99.90;;;;;;4974600;28;20183;-63
2023/07/16 11:51:54;;;;;;;11.73;1.75;;;17.00;99.90;;;;;;4973110;28;20183;-63
2023/07/16 11:54:19;;;;;;;13.32;2.50;;;17.00;99.90;;;;;;4973141;28;20635;-63
2023/07/16 11:56:47;;;;;;;15.55;2.53;;;17.50;99.90;;;;;;4974676;28;20222;-63
2023/07/16 11:59:12;;;;;;;17.67;2.67;;;18.00;99.90;;;;;;4974516;28;20207;-63
2023/07/16 12:01:38;;;;;;;14.85;2.45;;;18.70;99.90;;;;;;4974321;28;20172;-63
2023/07/16 12:04:04;;;;;;;14.13;2.28;;;19.50;99.90;;;;;;4974191;28;20183;-64
2023/07/16 12:06:29;;;;;;;17.15;2.40;;;19.20;99.90;;;;;;4974181;28;20179;-64
2023/07/16 12:08:55;;;;;;;15.25;2.78;;;19.40;99.90;;;;;;4974169;28;20714;-63
2023/07/16 12:11:21;;;;;;;13.82;2.10;;;19.20;99.90;;;;;;4974317;28;20176;-63
2023/07/16 12:13:47;;;;;;;14.95;2.35;;;19.00;99.90;;;;;;4974052;28;20608;-63
2023/07/16 12:16:13;;;;;;;14.52;2.17;;;19.20;99.90;;;;;;4974087;28;20168;-63
2023/07/16 12:18:39;;;;;;;13.70;2.15;;;19.30;99.90;;;;;;4974055;28;20301;-65
2023/07/16 12:21:06;;;;;;;16.23;2.55;;;20.20;99.90;;;;;;4972641;28;20183;-64
2023/07/16 12:23:31;;;;;;;9.88;2.58;;;20.20;99.90;;;;;;4974030;28;20164;-63
2023/07/16 12:25:57;;;;;;;15.25;2.35;;;20.20;99.90;;;;;;4973820;28;20585;-63
2023/07/16 12:28:23;;;;;;;15.13;2.63;;;20.80;99.90;;;;;;4973706;28;20535;-64
2023/07/16 12:30:48;;;;;;;16.10;2.25;;;21.10;99.90;;;;;;4973857;28;20584;-63
2023/07/16 12:33:14;;;;;;;13.88;2.45;;;21.20;99.90;;;;;;4960411;28;20655;-63
2023/07/16 12:35:40;;;;;;;13.00;2.30;;;22.00;99.90;;;;;;4973658;28;20644;-64
2023/07/16 12:38:05;;;;;;;10.85;2.72;;;22.00;99.90;;;;;;4965760;28;20176;-64
2023/07/16 12:40:31;;;;;;;14.00;2.13;;;21.70;99.90;;;;;;4954193;28;20703;-64
2023/07/16 12:42:56;;;;;;;11.98;2.28;;;21.40;99.90;;;;;;4954285;28;20527;-64